createdAt,value
2018-08-16T00:02:00.067Z,31.87
2018-08-16T00:04:31.033Z,31.40
2018-08-16T00:06:59.980Z,29.00
2018-08-16T00:09:29.019Z,31.17
2018-08-16T00:11:58.749Z,28.30
2018-08-16T00:14:27.609Z,29.17
2018-08-16T00:16:56.512Z,28.10
2018-08-16T00:19:28.110Z,29.27
2018-08-16T00:21:56.984Z,29.07
2018-08-16T00:24:25.862Z,27.93
2018-08-16T00:26:54.784Z,29.70
2018-08-16T00:29:23.994Z,31.63
2018-08-16T00:31:52.999Z,27.40
2018-08-16T00:34:21.917Z,33.07
2018-08-16T00:36:50.810Z,29.10
2018-08-16T00:39:19.679Z,30.97
2018-08-16T00:41:48.632Z,29.27
2018-08-16T00:44:17.429Z,27.57
2018-08-16T00:46:46.474Z,33.20
2018-08-16T00:49:16.491Z,29.30
2018-08-16T00:51:45.388Z,33.70
2018-08-16T00:54:14.269Z,32.00
2018-08-16T00:56:43.669Z,31.77
2018-08-16T00:59:13.600Z,29.73
2018-08-16T01:01:42.350Z,31.93
2018-08-16T01:04:11.221Z,31.77
2018-08-16T01:06:40.024Z,30.27
2018-08-16T01:09:10.254Z,31.33
2018-08-16T01:11:38.974Z,30.07
2018-08-16T01:14:08.961Z,33.00
2018-08-16T01:16:37.704Z,28.40
2018-08-16T01:19:06.555Z,29.37
2018-08-16T01:21:35.325Z,30.97
2018-08-16T01:24:04.320Z,30.60
2018-08-16T01:26:33.098Z,32.73
2018-08-16T01:29:02.095Z,31.40
2018-08-16T01:31:30.925Z,32.70
2018-08-16T01:33:59.816Z,32.47
2018-08-16T01:36:28.719Z,35.07
2018-08-16T01:38:57.649Z,32.23
2018-08-16T01:41:26.574Z,34.30
2018-08-16T01:43:55.420Z,34.47
2018-08-16T01:46:24.344Z,31.33
2018-08-16T01:48:53.370Z,33.67
2018-08-16T01:51:22.108Z,33.90
2018-08-16T01:53:50.950Z,35.07
2018-08-16T01:56:19.746Z,29.07
2018-08-16T01:58:48.515Z,34.17
2018-08-16T02:01:17.542Z,32.23
2018-08-16T02:03:46.414Z,33.93
2018-08-16T02:06:15.203Z,33.07
2018-08-16T02:08:44.047Z,33.40
2018-08-16T02:11:12.906Z,35.87
2018-08-16T02:13:41.891Z,34.67
2018-08-16T02:16:10.606Z,34.60
2018-08-16T02:18:39.341Z,33.50
2018-08-16T02:21:08.299Z,33.27
2018-08-16T02:23:37.114Z,34.40
2018-08-16T02:26:06.182Z,34.67
2018-08-16T02:28:34.965Z,30.60
2018-08-16T02:31:03.783Z,35.77
2018-08-16T02:33:32.598Z,32.10
2018-08-16T02:36:01.499Z,33.47
2018-08-16T02:38:30.311Z,32.27
2018-08-16T02:40:59.086Z,31.97
2018-08-16T02:43:27.951Z,33.20
2018-08-16T02:45:56.875Z,33.47
2018-08-16T02:48:25.837Z,38.50
2018-08-16T02:50:54.698Z,35.10
2018-08-16T02:53:23.436Z,30.90
2018-08-16T02:55:52.480Z,34.17
2018-08-16T02:58:21.227Z,32.20
2018-08-16T03:00:49.963Z,31.30
2018-08-16T03:03:18.783Z,31.10
2018-08-16T03:05:47.686Z,30.70
2018-08-16T03:08:16.539Z,33.40
2018-08-16T03:10:45.384Z,32.20
2018-08-16T03:13:14.154Z,35.37
2018-08-16T03:15:43.029Z,32.10
2018-08-16T03:18:11.967Z,32.93
2018-08-16T03:20:40.866Z,36.13
2018-08-16T03:23:09.616Z,35.60
2018-08-16T03:25:38.726Z,32.63
2018-08-16T03:28:07.509Z,29.83
2018-08-16T03:30:36.534Z,32.97
2018-08-16T03:33:05.444Z,31.57
2018-08-16T03:35:34.214Z,32.80
2018-08-16T03:38:04.070Z,33.53
2018-08-16T03:40:32.949Z,32.03
2018-08-16T03:43:01.790Z,31.53
2018-08-16T03:45:30.909Z,30.90
2018-08-16T03:47:59.904Z,31.73
2018-08-16T03:50:28.914Z,33.07
2018-08-16T03:52:57.686Z,31.57
2018-08-16T03:55:26.511Z,31.93
2018-08-16T03:57:55.206Z,29.93
2018-08-16T04:00:24.134Z,31.93
2018-08-16T04:02:53.058Z,30.87
2018-08-16T04:05:22.002Z,32.87
2018-08-16T04:07:50.844Z,32.23
2018-08-16T04:10:19.739Z,30.23
2018-08-16T04:12:48.625Z,34.63
2018-08-16T04:15:17.674Z,30.90
2018-08-16T04:17:46.474Z,32.37
2018-08-16T04:20:15.391Z,33.80
2018-08-16T04:22:44.291Z,32.63
2018-08-16T04:25:13.186Z,33.87
2018-08-16T04:27:42.028Z,32.23
2018-08-16T04:30:10.804Z,35.00
2018-08-16T04:32:39.645Z,32.30
2018-08-16T04:35:08.554Z,35.10
2018-08-16T04:37:37.412Z,31.57
2018-08-16T04:40:06.402Z,32.70
2018-08-16T04:42:35.379Z,37.07
2018-08-16T04:45:05.057Z,34.60
2018-08-16T04:47:33.889Z,39.13
2018-08-16T04:50:02.743Z,39.37
2018-08-16T04:52:31.606Z,37.23
2018-08-16T04:55:00.486Z,39.13
2018-08-16T04:57:29.432Z,35.93
2018-08-16T04:59:58.289Z,37.63
2018-08-16T05:02:27.259Z,38.13
2018-08-16T05:04:56.123Z,37.57
2018-08-16T05:07:25.219Z,37.80
2018-08-16T05:09:54.221Z,39.33
2018-08-16T05:12:23.129Z,39.40
2018-08-16T05:14:52.014Z,37.13
2018-08-16T05:17:20.991Z,39.67
2018-08-16T05:19:49.851Z,42.53
2018-08-16T05:22:18.713Z,39.90
2018-08-16T05:24:47.530Z,42.67
2018-08-16T05:27:16.313Z,39.37
2018-08-16T05:29:45.082Z,40.07
2018-08-16T05:32:14.069Z,45.80
2018-08-16T05:34:43.089Z,40.83
2018-08-16T05:37:11.898Z,43.23
2018-08-16T05:39:40.722Z,40.90
2018-08-16T05:42:09.758Z,40.07
2018-08-16T05:44:38.688Z,37.73
2018-08-16T05:47:07.738Z,39.80
2018-08-16T05:49:36.604Z,40.33
2018-08-16T05:52:05.597Z,38.67
2018-08-16T05:54:34.418Z,41.40
2018-08-16T05:57:03.369Z,39.93
2018-08-16T05:59:32.237Z,40.10
2018-08-16T06:02:01.163Z,40.03
2018-08-16T06:04:30.055Z,37.30
2018-08-16T06:06:59.049Z,38.57
2018-08-16T06:09:28.031Z,37.97
2018-08-16T06:11:56.904Z,39.43
2018-08-16T06:14:25.823Z,31.33
2018-08-16T06:16:54.774Z,32.20
2018-08-16T06:19:23.680Z,29.10
2018-08-16T06:21:52.535Z,24.43
2018-08-16T06:24:21.449Z,27.33
2018-08-16T06:26:50.289Z,26.27
2018-08-16T06:29:19.147Z,25.27
2018-08-16T06:31:48.115Z,23.77
2018-08-16T06:34:16.951Z,22.10
2018-08-16T06:36:45.795Z,22.17
2018-08-16T06:39:15.670Z,21.37
2018-08-16T06:41:44.732Z,22.80
2018-08-16T06:44:13.584Z,19.53
2018-08-16T06:46:42.545Z,18.23
2018-08-16T06:49:11.448Z,16.77
2018-08-16T06:51:40.511Z,17.40
2018-08-16T06:54:09.381Z,20.00
2018-08-16T06:56:38.380Z,20.13
2018-08-16T06:59:07.275Z,17.70
2018-08-16T07:01:36.171Z,17.33
2018-08-16T07:04:05.151Z,18.40
2018-08-16T07:06:34.118Z,17.33
2018-08-16T07:09:03.103Z,18.40
2018-08-16T07:11:32.239Z,16.93
2018-08-16T07:14:01.180Z,16.77
2018-08-16T07:16:30.061Z,20.10
2018-08-16T07:18:58.953Z,13.63
2018-08-16T07:21:28.224Z,14.50
2018-08-16T07:23:57.171Z,15.17
2018-08-16T07:26:27.340Z,15.83
2018-08-16T07:28:56.810Z,15.30
2018-08-16T07:31:25.796Z,14.70
2018-08-16T07:33:54.898Z,14.57
2018-08-16T07:36:23.844Z,14.90
2018-08-16T07:38:52.738Z,13.17
2018-08-16T07:41:21.734Z,13.37
2018-08-16T07:43:51.122Z,14.57
2018-08-16T07:46:20.173Z,14.47
2018-08-16T07:48:50.112Z,13.60
2018-08-16T07:51:19.150Z,11.60
2018-08-16T07:53:47.956Z,13.43
2018-08-16T07:56:18.263Z,13.67
2018-08-16T07:58:47.143Z,13.10
2018-08-16T08:01:15.986Z,13.80
2018-08-16T08:03:44.884Z,14.53
2018-08-16T08:06:15.784Z,16.13
2018-08-16T08:08:48.301Z,15.30
2018-08-16T08:11:17.708Z,13.73
2018-08-16T08:13:46.837Z,13.37
2018-08-16T08:16:15.903Z,12.10
2018-08-16T08:18:44.840Z,12.23
2018-08-16T08:21:13.697Z,14.50
2018-08-16T08:23:43.246Z,13.07
2018-08-16T08:26:12.215Z,12.77
2018-08-16T08:28:42.111Z,13.23
2018-08-16T08:31:10.911Z,12.93
2018-08-16T08:33:40.250Z,13.20
2018-08-16T08:36:20.073Z,15.80
2018-08-16T08:38:48.870Z,13.57
2018-08-16T08:41:17.778Z,13.23
2018-08-16T08:43:57.451Z,13.10
2018-08-16T08:46:26.306Z,14.60
2018-08-16T08:48:55.183Z,13.57
2018-08-16T08:51:23.998Z,13.90
2018-08-16T08:55:01.140Z,13.40
2018-08-16T08:57:40.744Z,14.73
2018-08-16T09:00:09.767Z,14.70
2018-08-16T09:02:38.623Z,15.60
2018-08-16T09:05:07.693Z,15.17
2018-08-16T09:07:36.491Z,14.77
2018-08-16T09:11:15.184Z,20.87
2018-08-16T09:13:57.198Z,15.33
2018-08-16T09:16:28.042Z,15.80
2018-08-16T09:18:57.300Z,16.60
2018-08-16T09:21:32.045Z,18.33
2018-08-16T09:24:00.968Z,20.27
2018-08-16T09:26:36.812Z,20.30
2018-08-16T09:30:18.490Z,43.03
2018-08-16T09:32:58.294Z,17.37
2018-08-16T09:35:28.063Z,18.57
2018-08-16T09:37:57.282Z,19.33
2018-08-16T09:40:27.243Z,18.30
2018-08-16T09:42:56.177Z,17.97
2018-08-16T09:45:35.911Z,16.90
2018-08-16T09:48:15.647Z,17.53
2018-08-16T09:50:44.625Z,27.00
2018-08-16T09:53:13.526Z,17.00
2018-08-16T09:55:42.459Z,32.83
2018-08-16T09:58:11.383Z,20.70
2018-08-16T10:00:46.551Z,23.87
2018-08-16T10:03:24.161Z,16.07
2018-08-16T10:05:53.139Z,14.90
2018-08-16T10:08:21.943Z,15.97
2018-08-16T10:10:52.091Z,16.47
2018-08-16T10:13:20.941Z,17.00
2018-08-16T10:15:49.718Z,16.73
2018-08-16T10:18:18.441Z,16.80
2018-08-16T10:20:49.297Z,17.10
2018-08-16T10:23:18.090Z,15.80
2018-08-16T10:25:46.875Z,16.17
2018-08-16T10:28:15.707Z,14.77
2018-08-16T10:30:44.489Z,17.73
2018-08-16T10:33:13.394Z,17.60
2018-08-16T10:35:42.333Z,18.90
2018-08-16T10:38:11.118Z,17.07
2018-08-16T10:40:39.951Z,14.57
2018-08-16T10:43:08.843Z,14.33
2018-08-16T10:45:37.723Z,17.10
2018-08-16T10:48:06.585Z,13.73
2018-08-16T10:50:35.311Z,16.20
2018-08-16T10:53:04.211Z,14.00
2018-08-16T10:55:33.088Z,14.07
2018-08-16T10:58:01.912Z,13.90
2018-08-16T11:00:30.772Z,12.67
2018-08-16T11:02:59.813Z,15.83
2018-08-16T11:05:28.641Z,12.70
2018-08-16T11:07:57.540Z,14.53
2018-08-16T11:10:26.310Z,12.73
2018-08-16T11:12:56.087Z,15.07
2018-08-16T11:15:24.954Z,13.83
2018-08-16T11:17:53.779Z,14.87
2018-08-16T11:20:22.582Z,14.30
2018-08-16T11:22:51.828Z,15.07
2018-08-16T11:25:20.690Z,14.87
2018-08-16T11:27:49.710Z,16.87
2018-08-16T11:30:18.708Z,16.33
2018-08-16T11:32:51.232Z,16.93
2018-08-16T11:35:20.167Z,16.97
2018-08-16T11:37:49.122Z,14.90
2018-08-16T11:40:17.901Z,17.60
2018-08-16T11:42:47.839Z,13.83
2018-08-16T11:45:16.639Z,15.00
2018-08-16T11:47:45.604Z,16.40
2018-08-16T11:50:14.472Z,15.20
2018-08-16T11:52:44.349Z,16.30
2018-08-16T11:55:13.494Z,16.07
2018-08-16T11:57:42.817Z,14.00
2018-08-16T12:00:11.723Z,16.03
2018-08-16T12:02:42.544Z,12.33
2018-08-16T12:05:11.390Z,15.23
2018-08-16T12:07:40.159Z,18.33
2018-08-16T12:10:09.162Z,16.13
2018-08-16T12:12:38.979Z,16.40
2018-08-16T12:15:08.787Z,15.63
2018-08-16T12:17:37.810Z,17.40
2018-08-16T12:20:07.688Z,20.13
2018-08-16T12:22:38.662Z,18.33
2018-08-16T12:25:08.046Z,13.43
2018-08-16T12:27:36.825Z,16.60
2018-08-16T12:30:07.467Z,14.73
2018-08-16T12:32:37.371Z,54.33
2018-08-16T12:35:07.208Z,25.63
2018-08-16T12:37:36.083Z,17.70
2018-08-16T12:40:06.546Z,13.63
2018-08-16T12:42:35.484Z,21.30
2018-08-16T12:45:04.464Z,13.57
2018-08-16T12:47:33.323Z,19.70
2018-08-16T12:50:02.136Z,13.70
2018-08-16T12:52:31.075Z,16.30
2018-08-16T12:55:00.203Z,16.50
2018-08-16T12:57:29.030Z,24.93
2018-08-16T12:59:57.911Z,19.20
2018-08-16T13:02:26.699Z,15.70
2018-08-16T13:04:57.811Z,14.80
2018-08-16T13:07:26.847Z,13.70
2018-08-16T13:09:55.594Z,13.40
2018-08-16T13:12:24.363Z,12.93
2018-08-16T13:14:53.373Z,12.20
2018-08-16T13:17:22.221Z,11.53
2018-08-16T13:19:50.999Z,12.37
2018-08-16T13:22:20.094Z,12.30
2018-08-16T13:24:49.126Z,11.13
2018-08-16T13:27:18.106Z,11.50
2018-08-16T13:29:47.242Z,11.87
2018-08-16T13:32:16.198Z,14.67
2018-08-16T13:34:45.261Z,13.23
2018-08-16T13:37:14.343Z,14.23
2018-08-16T13:39:43.038Z,15.83
2018-08-16T13:42:11.848Z,13.77
2018-08-16T13:44:41.682Z,14.00
2018-08-16T13:47:10.871Z,11.07
2018-08-16T13:49:39.783Z,10.63
2018-08-16T13:52:09.415Z,11.33
2018-08-16T13:54:39.362Z,15.37
2018-08-16T13:57:08.232Z,14.87
2018-08-16T13:59:37.080Z,14.53
2018-08-16T14:02:06.165Z,15.87
2018-08-16T14:04:35.118Z,13.87
2018-08-16T14:07:04.037Z,14.60
2018-08-16T14:09:32.758Z,15.87
2018-08-16T14:12:01.581Z,13.20
2018-08-16T14:14:32.454Z,17.60
2018-08-16T14:17:01.357Z,13.60
2018-08-16T14:19:30.211Z,14.13
2018-08-16T14:21:59.077Z,18.33
2018-08-16T14:24:29.103Z,15.07
2018-08-16T14:26:57.999Z,12.98
2018-08-16T14:29:26.782Z,14.05
2018-08-16T14:31:55.768Z,15.93
2018-08-16T14:34:26.628Z,14.45
2018-08-16T14:36:55.451Z,14.37
2018-08-16T14:39:24.241Z,15.43
2018-08-16T14:41:53.087Z,12.15
2018-08-16T14:44:22.945Z,15.37
2018-08-16T14:46:51.814Z,14.20
2018-08-16T14:49:20.529Z,15.20
2018-08-16T14:51:49.475Z,13.77
2018-08-16T14:54:18.594Z,14.50
2018-08-16T14:56:47.585Z,15.60
2018-08-16T14:59:17.422Z,18.30
2018-08-16T15:01:46.505Z,14.47
2018-08-16T15:04:15.500Z,15.27
2018-08-16T15:06:46.486Z,16.93
2018-08-16T15:09:15.273Z,12.23
2018-08-16T15:11:44.098Z,18.50
2018-08-16T15:14:13.083Z,16.10
2018-08-16T15:16:41.969Z,14.90
2018-08-16T15:19:12.081Z,16.20
2018-08-16T15:21:41.196Z,14.37
2018-08-16T15:24:09.970Z,16.63
2018-08-16T15:26:39.812Z,15.87
2018-08-16T15:29:10.339Z,14.40
2018-08-16T15:31:39.339Z,14.77
2018-08-16T15:34:08.645Z,14.17
2018-08-16T15:36:37.538Z,15.23
2018-08-16T15:39:08.432Z,14.85
2018-08-16T15:41:37.560Z,13.87
2018-08-16T15:44:06.879Z,15.00
2018-08-16T15:46:35.738Z,13.13
2018-08-16T15:49:04.563Z,11.85
2018-08-16T15:51:34.306Z,11.90
2018-08-16T15:54:03.438Z,11.90
2018-08-16T15:56:32.378Z,12.00
2018-08-16T15:59:01.260Z,13.07
2018-08-16T16:01:30.082Z,13.17
2018-08-16T16:03:59.107Z,13.90
2018-08-16T16:06:28.076Z,15.37
2018-08-16T16:08:56.876Z,11.47
2018-08-16T16:11:25.630Z,12.23
2018-08-16T16:13:54.399Z,13.47
2018-08-16T16:16:23.245Z,10.37
2018-08-16T16:18:52.102Z,12.90
2018-08-16T16:21:21.042Z,11.07
2018-08-16T16:23:50.008Z,11.93
2018-08-16T16:26:18.848Z,12.30
2018-08-16T16:28:48.681Z,13.93
2018-08-16T16:31:17.480Z,12.93
2018-08-16T16:33:46.260Z,11.30
2018-08-16T16:36:15.003Z,13.70
2018-08-16T16:38:44.049Z,12.30
2018-08-16T16:41:12.847Z,10.47
2018-08-16T16:43:42.049Z,10.60
2018-08-16T16:46:10.827Z,11.37
2018-08-16T16:48:39.783Z,14.07
2018-08-16T16:51:08.552Z,10.63
2018-08-16T16:53:37.338Z,11.40
2018-08-16T16:56:06.198Z,11.43
2018-08-16T16:58:35.346Z,12.00
2018-08-16T17:01:04.130Z,10.30
2018-08-16T17:03:33.039Z,11.73
2018-08-16T17:06:03.884Z,11.20
2018-08-16T17:08:32.700Z,11.43
2018-08-16T17:11:01.615Z,12.70
2018-08-16T17:13:30.469Z,12.50
2018-08-16T17:15:59.287Z,11.70
2018-08-16T17:18:28.307Z,13.23
2018-08-16T17:20:57.086Z,12.87
2018-08-16T17:23:26.282Z,11.70
2018-08-16T17:25:55.107Z,11.83
2018-08-16T17:28:24.032Z,12.53
2018-08-16T17:30:52.894Z,10.47
2018-08-16T17:33:21.715Z,11.80
2018-08-16T17:35:50.601Z,12.00
2018-08-16T17:38:19.461Z,10.70
2018-08-16T17:40:48.387Z,10.73
2018-08-16T17:43:17.211Z,11.03
2018-08-16T17:45:46.078Z,9.90
2018-08-16T17:48:16.011Z,11.67
2018-08-16T17:50:44.692Z,13.60
2018-08-16T17:53:13.510Z,10.80
2018-08-16T17:55:42.370Z,10.93
2018-08-16T17:58:11.404Z,11.47
2018-08-16T18:00:40.233Z,10.00
2018-08-16T18:03:09.086Z,11.67
2018-08-16T18:05:37.814Z,11.47
2018-08-16T18:08:06.691Z,11.77
2018-08-16T18:10:35.504Z,10.83
2018-08-16T18:13:04.294Z,10.60
2018-08-16T18:15:33.006Z,9.67
2018-08-16T18:18:01.814Z,11.87
2018-08-16T18:20:30.610Z,9.90
2018-08-16T18:22:59.374Z,11.40
2018-08-16T18:25:28.442Z,12.80
2018-08-16T18:27:57.335Z,12.97
2018-08-16T18:30:26.222Z,13.10
2018-08-16T18:32:54.902Z,13.07
2018-08-16T18:35:23.694Z,12.30
2018-08-16T18:37:52.578Z,12.63
2018-08-16T18:40:21.436Z,13.17
2018-08-16T18:42:50.237Z,13.37
2018-08-16T18:45:18.991Z,13.30
2018-08-16T18:47:47.887Z,14.97
2018-08-16T18:50:17.610Z,13.77
2018-08-16T18:52:46.406Z,13.40
2018-08-16T18:55:15.266Z,16.17
2018-08-16T18:57:45.220Z,14.10
2018-08-16T19:00:14.096Z,12.53
2018-08-16T19:02:42.902Z,13.83
2018-08-16T19:05:11.806Z,9.50
2018-08-16T19:07:40.762Z,11.50
2018-08-16T19:10:10.733Z,14.30
2018-08-16T19:12:39.516Z,15.47
2018-08-16T19:15:08.462Z,13.47
2018-08-16T19:17:37.327Z,13.93
2018-08-16T19:20:06.563Z,15.33
2018-08-16T19:22:35.393Z,15.80
2018-08-16T19:25:04.202Z,14.47
2018-08-16T19:27:32.992Z,14.60
2018-08-16T19:30:01.886Z,15.87
2018-08-16T19:32:30.550Z,13.90
2018-08-16T19:34:59.350Z,15.50
2018-08-16T19:37:28.170Z,13.53
2018-08-16T19:39:57.025Z,13.63
2018-08-16T19:42:25.838Z,15.20
2018-08-16T19:44:54.730Z,14.60
2018-08-16T19:47:23.524Z,15.47
2018-08-16T19:49:52.336Z,17.30
2018-08-16T19:52:21.244Z,15.27
2018-08-16T19:54:50.101Z,17.20
2018-08-16T19:57:18.948Z,17.30
2018-08-16T19:59:47.730Z,16.90
2018-08-16T20:02:16.648Z,15.97
2018-08-16T20:04:45.559Z,16.70
2018-08-16T20:07:15.506Z,17.90
2018-08-16T20:09:44.360Z,18.20
2018-08-16T20:12:13.240Z,18.47
2018-08-16T20:14:42.110Z,18.10
2018-08-16T20:17:11.073Z,15.87
2018-08-16T20:19:39.905Z,16.13
2018-08-16T20:22:17.355Z,18.97
2018-08-16T20:24:46.462Z,16.27
2018-08-16T20:27:15.408Z,17.90
2018-08-16T20:29:44.954Z,16.83
2018-08-16T20:32:13.921Z,18.70
2018-08-16T20:34:42.788Z,20.00
2018-08-16T20:37:11.591Z,17.40
2018-08-16T20:39:40.563Z,20.50
2018-08-16T20:42:09.604Z,17.00
2018-08-16T20:44:38.419Z,17.57
2018-08-16T20:47:07.425Z,20.23
2018-08-16T20:49:36.581Z,17.00
2018-08-16T20:52:05.504Z,18.53
2018-08-16T20:54:34.336Z,17.70
2018-08-16T20:57:03.196Z,19.30
2018-08-16T20:59:32.000Z,16.63
2018-08-16T21:02:00.884Z,17.97
2018-08-16T21:04:29.775Z,17.77
2018-08-16T21:06:58.568Z,16.27
2018-08-16T21:09:27.384Z,16.20
2018-08-16T21:11:56.371Z,15.10
2018-08-16T21:14:25.157Z,17.30
2018-08-16T21:16:53.931Z,18.07
2018-08-16T21:19:22.772Z,17.30
2018-08-16T21:21:51.638Z,16.37
2018-08-16T21:24:20.606Z,15.90
2018-08-16T21:26:49.420Z,19.93
2018-08-16T21:29:18.186Z,17.50
2018-08-16T21:31:46.935Z,19.77
2018-08-16T21:34:15.702Z,18.40
2018-08-16T21:36:44.572Z,21.50
2018-08-16T21:39:13.601Z,21.90
2018-08-16T21:41:42.451Z,20.67
2018-08-16T21:44:11.803Z,19.13
2018-08-16T21:46:40.660Z,19.93
2018-08-16T21:49:09.451Z,18.60
2018-08-16T21:51:38.355Z,19.87
2018-08-16T21:54:07.453Z,20.87
2018-08-16T21:56:36.214Z,20.40
2018-08-16T21:59:05.079Z,18.07
2018-08-16T22:01:34.111Z,19.37
2018-08-16T22:04:02.850Z,22.37
2018-08-16T22:06:42.614Z,21.30
2018-08-16T22:09:13.075Z,22.13
2018-08-16T22:11:41.903Z,19.50
2018-08-16T22:14:10.764Z,20.33
2018-08-16T22:16:39.679Z,19.30
2018-08-16T22:19:08.529Z,19.53
2018-08-16T22:21:37.398Z,21.57
2018-08-16T22:24:06.194Z,24.93
2018-08-16T22:26:34.970Z,19.80
2018-08-16T22:29:03.710Z,19.80
2018-08-16T22:31:32.574Z,21.13
2018-08-16T22:34:01.423Z,22.40
2018-08-16T22:36:30.287Z,20.17
2018-08-16T22:39:00.084Z,20.40
2018-08-16T22:41:28.879Z,19.90
2018-08-16T22:43:57.587Z,22.80
2018-08-16T22:46:26.439Z,22.37
2018-08-16T22:48:55.295Z,21.60
2018-08-16T22:51:24.027Z,21.90
2018-08-16T22:53:52.852Z,21.80
2018-08-16T22:56:21.739Z,23.60
2018-08-16T22:58:50.592Z,21.00
2018-08-16T23:01:19.464Z,20.00
2018-08-16T23:03:48.229Z,23.10
2018-08-16T23:06:17.057Z,22.17
2018-08-16T23:08:46.899Z,21.73
2018-08-16T23:11:15.835Z,22.73
2018-08-16T23:13:44.667Z,21.00
2018-08-16T23:16:13.490Z,24.00
2018-08-16T23:18:42.359Z,20.40
2018-08-16T23:21:11.042Z,21.67
2018-08-16T23:23:39.878Z,21.80
2018-08-16T23:26:08.584Z,20.70
2018-08-16T23:28:37.320Z,22.87
2018-08-16T23:31:06.169Z,21.73
2018-08-16T23:33:35.027Z,20.83
2018-08-16T23:36:03.834Z,22.80
2018-08-16T23:38:32.721Z,26.50
2018-08-16T23:41:01.467Z,24.90
2018-08-16T23:43:30.222Z,24.60
2018-08-16T23:45:59.120Z,24.47
2018-08-16T23:48:31.277Z,23.13
2018-08-16T23:51:00.285Z,24.50
2018-08-16T23:53:29.283Z,22.47
2018-08-16T23:55:58.158Z,23.07
2018-08-16T23:58:26.989Z,23.27
